KLFK/LFK METAR and TAF weather

Enter ICAO airport designator
Station Type Date Time Source
KLFK METAR 2019/04/22 19:53 UTC NOAA

KLFK 221953Z AUTO 13008G16KT 10SM FEW044 26/16 A3007 RMK AO2 SLP178 T02610156


Station Type Date Time Source
KLFK Decoded METAR 2019/04/22 19:53 UTC NOAA

LUFKIN ANGELINA COUNTY AIRPORT , TX, United States (KLFK) 31-14N 94-45W 88M
Apr 22, 2019 - 03:53 PM EDT / 2019.04.22 1953 UTC
Wind: from the SE (130 degrees) at 9 MPH (8 KT) gusting to 18 MPH (16 KT):0
Visibility: 10 mile(s):0
Sky conditions: mostly clear
Temperature: 79.0 F (26.1 C)
Dew Point: 60.1 F (15.6 C)
Relative Humidity: 52%
Pressure (altimeter): 30.07 in. Hg (1018 hPa)
ob: KLFK 221953Z AUTO 13008G16KT 10SM FEW044 26/16 A3007 RMK AO2 SLP178 T02610156
cycle: 20

Station Type Date Time Source
KLFK TAF 2019/04/22 19:36 UTC NOAA

TAF
AMD KLFK 221833Z 2219/2318 15012G18KT P6SM SCT035 BKN250
FM230000 16008KT P6SM SCT040 BKN250
FM230900 15004KT P6SM OVC015
FM231700 16009KT P6SM OVC035

Example: see airport list